Time;durP1;ratioP1;P1;durP2;ratioP2;P2;SDS_P1;SDS_P2;PMS_P1;PMS_P2;Temp;Humidity;BMP_temperature;BMP_pressure;BME280_temperature;BME280_humidity;BME280_pressure;Samples;Min_cycle;Max_cycle;Signal;HPM_P1;HPM_P2
2021/01/30 00:00:33;;;;;;;16.25;8.60;;;1.40;99.90;;;;;;4989217;28;20449;-73
2021/01/30 00:02:59;;;;;;;12.15;8.27;;;1.80;99.90;;;;;;5001751;28;20030;-73
2021/01/30 00:05:26;;;;;;;14.27;7.75;;;1.70;99.90;;;;;;4988902;28;20084;-73
2021/01/30 00:07:52;;;;;;;14.05;8.45;;;1.50;99.90;;;;;;5011437;28;20045;-73
2021/01/30 00:10:18;;;;;;;13.05;8.20;;;1.30;99.90;;;;;;5011517;28;20381;-73
2021/01/30 00:12:44;;;;;;;12.63;8.02;;;1.20;99.90;;;;;;5011987;28;20381;-73
2021/01/30 00:15:12;;;;;;;14.73;6.93;;;1.20;99.90;;;;;;5012271;28;20036;-73
2021/01/30 00:17:38;;;;;;;11.52;6.30;;;1.30;99.90;;;;;;5010361;28;20026;-73
2021/01/30 00:20:07;;;;;;;11.05;6.85;;;1.30;99.90;;;;;;5012210;28;20504;-73
2021/01/30 00:22:33;;;;;;;11.90;7.65;;;1.50;99.90;;;;;;5011518;28;20037;-73
2021/01/30 00:24:59;;;;;;;15.75;8.38;;;1.60;99.90;;;;;;5011939;28;20022;-73
2021/01/30 00:27:25;;;;;;;11.90;8.25;;;1.50;99.90;;;;;;5007937;28;20507;-73
2021/01/30 00:29:51;;;;;;;11.27;6.75;;;1.30;99.90;;;;;;4992089;28;20077;-73
2021/01/30 00:32:19;;;;;;;13.25;8.00;;;1.50;99.90;;;;;;5010193;28;20093;-73
2021/01/30 00:34:46;;;;;;;14.32;7.00;;;1.60;99.90;;;;;;5011669;28;20018;-73
2021/01/30 00:37:15;;;;;;;12.50;7.13;;;1.50;99.90;;;;;;5010994;28;20037;-73
2021/01/30 00:39:41;;;;;;;13.23;7.63;;;1.50;99.90;;;;;;5011251;28;20034;-73
2021/01/30 00:42:09;;;;;;;14.35;8.63;;;1.50;99.90;;;;;;5011399;28;20197;-73
2021/01/30 00:44:35;;;;;;;10.48;7.30;;;1.40;99.90;;;;;;5011711;28;20079;-73
2021/01/30 00:47:01;;;;;;;15.18;8.07;;;1.30;99.90;;;;;;5010437;28;20097;-73
2021/01/30 00:49:27;;;;;;;13.82;7.75;;;1.20;99.90;;;;;;5010512;28;20103;-73
2021/01/30 00:51:53;;;;;;;12.80;7.82;;;1.10;99.90;;;;;;5009764;28;20452;-73
2021/01/30 00:54:19;;;;;;;13.02;6.85;;;1.10;99.90;;;;;;5011357;28;20376;-73
2021/01/30 00:56:52;;;;;;;12.13;7.30;;;1.10;99.90;;;;;;5007454;28;20026;-73
2021/01/30 00:59:19;;;;;;;16.52;7.65;;;1.10;99.90;;;;;;5011216;28;20030;-73
2021/01/30 01:01:45;;;;;;;14.27;7.30;;;1.10;99.90;;;;;;5011681;28;20030;-73
2021/01/30 01:04:11;;;;;;;13.30;7.88;;;1.10;99.90;;;;;;5014975;28;20558;-73
2021/01/30 01:06:37;;;;;;;11.90;8.68;;;1.00;99.90;;;;;;4998256;28;20026;-73
2021/01/30 01:09:06;;;;;;;13.98;8.68;;;0.80;99.90;;;;;;5008362;28;20488;-73
2021/01/30 01:11:32;;;;;;;15.82;8.73;;;0.80;99.90;;;;;;5008833;28;20097;-73
2021/01/30 01:13:58;;;;;;;14.93;7.45;;;0.80;99.90;;;;;;5015002;28;20061;-73
2021/01/30 01:16:24;;;;;;;15.02;9.35;;;0.60;99.90;;;;;;5014877;28;20022;-73
2021/01/30 01:18:50;;;;;;;17.00;8.82;;;0.70;99.90;;;;;;5015219;28;20036;-73
2021/01/30 01:21:15;;;;;;;12.75;8.30;;;0.80;99.90;;;;;;5014057;28;20057;-73
2021/01/30 01:23:45;;;;;;;15.98;9.00;;;0.60;99.90;;;;;;5015267;28;20379;-73
2021/01/30 01:26:13;;;;;;;11.23;7.35;;;0.70;99.90;;;;;;5014523;28;20034;-73
2021/01/30 01:28:39;;;;;;;11.90;8.30;;;0.80;99.90;;;;;;5015090;28;20139;-73
2021/01/30 01:31:05;;;;;;;11.95;7.78;;;0.80;99.90;;;;;;5014435;28;20495;-73
2021/01/30 01:33:31;;;;;;;14.30;8.60;;;0.80;99.90;;;;;;5000091;28;20392;-72
2021/01/30 01:35:57;;;;;;;10.60;7.53;;;0.70;99.90;;;;;;5011806;28;20029;-73
2021/01/30 01:38:23;;;;;;;15.07;7.97;;;0.60;99.90;;;;;;5014247;28;20026;-73
2021/01/30 01:40:49;;;;;;;14.52;8.93;;;0.70;99.90;;;;;;5010914;28;20026;-73
2021/01/30 01:43:24;;;;;;;17.83;10.98;;;0.70;99.90;;;;;;5014353;28;20030;-73
2021/01/30 01:46:10;;;;;;;16.52;9.82;;;1.00;99.90;;;;;;5014625;28;20033;-73
2021/01/30 01:48:47;;;;;;;18.02;9.40;;;0.90;99.90;;;;;;5000218;28;20049;-73
2021/01/30 01:51:23;;;;;;;15.05;9.65;;;0.80;99.90;;;;;;5000024;28;20026;-73
2021/01/30 01:53:49;;;;;;;14.88;8.85;;;1.10;99.90;;;;;;5013616;28;20033;-73
2021/01/30 01:56:21;;;;;;;15.40;9.48;;;1.30;99.90;;;;;;5014913;28;20022;-73
2021/01/30 01:58:50;;;;;;;16.75;9.07;;;1.80;99.90;;;;;;5013691;28;20377;-73
2021/01/30 02:01:17;;;;;;;15.60;9.93;;;1.40;99.90;;;;;;5013720;28;20124;-73
2021/01/30 02:03:53;;;;;;;13.85;8.43;;;1.30;99.90;;;;;;5000586;28;20026;-73
2021/01/30 02:06:19;;;;;;;17.05;9.27;;;1.20;99.90;;;;;;4999131;28;20078;-73
2021/01/30 02:08:46;;;;;;;13.68;8.95;;;1.10;99.90;;;;;;5013499;28;20042;-73
2021/01/30 02:11:11;;;;;;;16.00;9.15;;;1.00;99.90;;;;;;5012470;28;20394;-73
2021/01/30 02:13:50;;;;;;;14.80;9.38;;;0.80;99.90;;;;;;5013073;28;20034;-73
2021/01/30 02:16:40;;;;;;;16.08;8.48;;;0.80;99.90;;;;;;5013529;28;20025;-73
2021/01/30 02:19:44;;;;;;;16.25;8.88;;;0.70;99.90;;;;;;5013458;28;20025;-73
2021/01/30 02:22:36;;;;;;;15.18;8.02;;;0.80;99.90;;;;;;5005832;28;20120;-73
2021/01/30 02:25:32;;;;;;;15.30;9.18;;;1.10;99.90;;;;;;5008025;28;20377;-73
2021/01/30 02:28:32;;;;;;;17.05;8.50;;;0.90;99.90;;;;;;5013810;28;20096;-72
2021/01/30 02:31:09;;;;;;;16.98;9.80;;;0.70;99.90;;;;;;5013208;28;20030;-73
2021/01/30 02:33:59;;;;;;;17.63;9.90;;;0.50;99.90;;;;;;5013078;28;20084;-73
2021/01/30 02:36:35;;;;;;;15.70;10.15;;;0.20;99.90;;;;;;5009576;28;20022;-73
2021/01/30 02:39:25;;;;;;;16.17;9.38;;;0.30;99.90;;;;;;5013450;28;20034;-73
2021/01/30 02:42:05;;;;;;;12.60;8.85;;;0.70;99.90;;;;;;5012937;28;20083;-73
2021/01/30 02:44:36;;;;;;;13.52;7.40;;;1.60;99.90;;;;;;5013664;28;20036;-73
2021/01/30 02:47:02;;;;;;;16.50;10.32;;;1.80;99.90;;;;;;5012523;28;20033;-73
2021/01/30 02:49:33;;;;;;;15.60;10.30;;;1.20;99.90;;;;;;5013611;28;20053;-73
2021/01/30 02:52:26;;;;;;;16.50;9.85;;;0.70;99.90;;;;;;5012952;28;20030;-73
2021/01/30 02:54:55;;;;;;;12.73;7.88;;;0.50;99.90;;;;;;5011774;28;20045;-72
2021/01/30 02:57:41;;;;;;;12.05;6.90;;;1.20;99.90;;;;;;5012790;28;20057;-73
2021/01/30 03:00:10;;;;;;;11.55;7.05;;;2.00;99.90;;;;;;5012635;28;20030;-73
2021/01/30 03:02:35;;;;;;;11.00;6.15;;;2.10;99.90;;;;;;5007801;28;20105;-72
2021/01/30 03:05:04;;;;;;;16.17;9.20;;;2.00;99.90;;;;;;4994115;28;20156;-73
2021/01/30 03:07:54;;;;;;;16.75;9.32;;;1.40;99.90;;;;;;5012449;28;20512;-73
2021/01/30 03:10:41;;;;;;;16.85;9.20;;;1.00;99.90;;;;;;5012787;28;20040;-73
2021/01/30 03:13:30;;;;;;;16.00;8.10;;;0.90;99.90;;;;;;5012710;28;20113;-73
2021/01/30 03:15:58;;;;;;;12.13;8.00;;;0.70;99.90;;;;;;5012565;28;20038;-73
2021/01/30 03:18:32;;;;;;;18.10;9.63;;;0.50;99.90;;;;;;5013349;28;20025;-73
2021/01/30 03:21:00;;;;;;;13.13;7.75;;;0.50;99.90;;;;;;5012659;28;20030;-73
2021/01/30 03:23:27;;;;;;;13.05;6.90;;;0.80;99.90;;;;;;5012481;28;20027;-73
2021/01/30 03:25:55;;;;;;;10.48;6.65;;;1.10;99.90;;;;;;5011673;28;20079;-72
2021/01/30 03:28:21;;;;;;;15.88;9.05;;;1.30;99.90;;;;;;5012192;28;20038;-73
2021/01/30 03:30:47;;;;;;;14.73;8.13;;;1.10;99.90;;;;;;5012085;28;20109;-73
2021/01/30 03:33:13;;;;;;;13.07;7.97;;;0.90;99.90;;;;;;5012310;28;20038;-73
2021/01/30 03:35:38;;;;;;;13.48;6.53;;;0.80;99.90;;;;;;5012477;28;20030;-73
2021/01/30 03:38:04;;;;;;;11.20;6.18;;;1.00;99.90;;;;;;5012593;28;20033;-73
2021/01/30 03:40:30;;;;;;;8.93;5.68;;;1.70;99.90;;;;;;5012267;28;20408;-73
2021/01/30 03:42:56;;;;;;;11.75;5.35;;;2.50;99.90;;;;;;5011827;28;20029;-73
2021/01/30 03:45:27;;;;;;;11.07;5.22;;;2.70;99.90;;;;;;5012002;28;20033;-73
2021/01/30 03:47:53;;;;;;;9.10;5.35;;;2.40;99.90;;;;;;5012461;28;20042;-73
2021/01/30 03:50:19;;;;;;;8.93;4.80;;;2.70;99.90;;;;;;5011428;28;20040;-73
2021/01/30 03:52:45;;;;;;;9.30;5.28;;;2.60;99.90;;;;;;5011336;28;20088;-73
2021/01/30 03:55:11;;;;;;;8.52;4.43;;;2.50;99.90;;;;;;5011604;28;20464;-73
2021/01/30 03:57:37;;;;;;;9.43;4.30;;;2.50;99.90;;;;;;5012224;28;20018;-72
2021/01/30 04:00:10;;;;;;;9.35;4.85;;;2.50;99.90;;;;;;5011881;28;20409;-73
2021/01/30 04:02:35;;;;;;;9.95;4.53;;;2.30;99.90;;;;;;5006038;28;21389;-73
2021/01/30 04:05:01;;;;;;;9.98;4.80;;;2.40;99.90;;;;;;4985137;28;20554;-73
2021/01/30 04:07:27;;;;;;;6.85;3.97;;;2.30;99.90;;;;;;4997794;28;20037;-73
2021/01/30 04:09:53;;;;;;;6.93;4.80;;;2.10;99.90;;;;;;5004983;28;20088;-73
2021/01/30 04:12:18;;;;;;;8.43;4.45;;;2.40;99.90;;;;;;5004161;28;20030;-73
2021/01/30 04:14:44;;;;;;;9.55;4.72;;;2.30;99.90;;;;;;5004564;28;20433;-73
2021/01/30 04:17:10;;;;;;;8.05;4.72;;;2.30;99.90;;;;;;5003016;28;20116;-73
2021/01/30 04:19:38;;;;;;;13.20;6.35;;;1.90;99.90;;;;;;5005000;28;20045;-73
2021/01/30 04:22:05;;;;;;;11.20;6.72;;;1.50;99.90;;;;;;5004462;28;20038;-73
2021/01/30 04:24:31;;;;;;;11.43;6.53;;;1.20;99.90;;;;;;5004294;28;20377;-73
2021/01/30 04:26:57;;;;;;;13.38;10.45;;;1.20;99.90;;;;;;5002833;28;20029;-73
2021/01/30 04:29:23;;;;;;;10.13;8.05;;;1.20;99.90;;;;;;5004724;28;20041;-73
2021/01/30 04:31:56;;;;;;;15.18;8.90;;;1.20;99.90;;;;;;5003839;28;20574;-73
2021/01/30 04:34:22;;;;;;;11.52;6.60;;;1.10;99.90;;;;;;5003555;28;20034;-73
2021/01/30 04:36:47;;;;;;;11.10;6.80;;;1.00;99.90;;;;;;5003609;28;20026;-73
2021/01/30 04:39:13;;;;;;;11.45;6.90;;;0.80;99.90;;;;;;5004776;28;20097;-73
2021/01/30 04:41:42;;;;;;;10.55;5.93;;;1.00;99.90;;;;;;5004206;28;20069;-73
2021/01/30 04:44:47;;;;;;;9.52;5.07;;;0.90;99.90;;;;;;5004255;28;20080;-73
2021/01/30 04:47:26;;;;;;;12.98;5.93;;;1.10;99.90;;;;;;4982733;28;20207;-73
2021/01/30 04:50:03;;;;;;;36.40;15.90;;;0.90;99.90;;;;;;5003762;28;20465;-72
2021/01/30 04:52:55;;;;;;;15.48;8.73;;;0.70;99.90;;;;;;5003854;28;20030;-73
2021/01/30 04:55:42;;;;;;;11.80;7.55;;;0.60;99.90;;;;;;5003954;28;20033;-73
2021/01/30 04:58:42;;;;;;;14.32;7.93;;;0.60;99.90;;;;;;5004370;28;20598;-73
2021/01/30 05:01:32;;;;;;;13.75;8.00;;;0.70;99.90;;;;;;5002503;28;20042;-72
2021/01/30 05:04:07;;;;;;;10.88;6.63;;;1.00;99.90;;;;;;5004023;28;20555;-73
2021/01/30 05:07:10;;;;;;;10.45;7.30;;;1.40;99.90;;;;;;5003272;28;20018;-73
2021/01/30 05:09:52;;;;;;;9.68;5.88;;;1.30;99.90;;;;;;4986767;28;20597;-73
2021/01/30 05:12:55;;;;;;;8.35;5.70;;;1.40;99.90;;;;;;5003887;28;20062;-73
2021/01/30 05:15:48;;;;;;;10.30;6.10;;;1.40;99.90;;;;;;5002937;28;21117;-73
2021/01/30 05:18:30;;;;;;;10.15;4.82;;;1.50;99.90;;;;;;5003947;28;20064;-73
2021/01/30 05:21:02;;;;;;;8.13;5.05;;;1.50;99.90;;;;;;5003768;28;20125;-73
2021/01/30 05:23:29;;;;;;;6.47;4.53;;;1.50;99.90;;;;;;5002963;28;20034;-73
2021/01/30 05:26:21;;;;;;;10.52;4.60;;;1.50;99.90;;;;;;5003340;28;20109;-73
2021/01/30 05:29:08;;;;;;;9.63;4.72;;;1.60;99.90;;;;;;5003797;28;20541;-73
2021/01/30 05:31:51;;;;;;;7.57;4.50;;;1.80;99.90;;;;;;5003603;28;20099;-73
2021/01/30 05:34:19;;;;;;;6.93;4.05;;;1.70;99.90;;;;;;5003699;28;20603;-73
2021/01/30 05:36:48;;;;;;;7.22;4.25;;;1.70;99.90;;;;;;5003194;28;20033;-73
2021/01/30 05:39:23;;;;;;;7.57;4.00;;;1.50;99.90;;;;;;5004080;28;20469;-73
2021/01/30 05:42:05;;;;;;;9.90;4.05;;;1.60;99.90;;;;;;5003347;28;20030;-73
2021/01/30 05:45:12;;;;;;;6.85;3.63;;;1.70;99.90;;;;;;5004016;28;20097;-73
2021/01/30 05:47:39;;;;;;;7.53;4.18;;;1.50;99.90;;;;;;5004240;28;20046;-72
2021/01/30 05:50:08;;;;;;;16.13;8.25;;;1.30;99.90;;;;;;5006429;28;20026;-73
2021/01/30 05:52:37;;;;;;;23.92;14.02;;;1.10;99.90;;;;;;5007512;28;20584;-73
2021/01/30 05:55:04;;;;;;;16.35;9.05;;;1.00;99.90;;;;;;5005852;28;20030;-73
2021/01/30 05:57:30;;;;;;;8.60;4.68;;;1.00;99.90;;;;;;5006137;28;20504;-72
2021/01/30 05:59:59;;;;;;;6.10;3.67;;;0.90;99.90;;;;;;5006851;28;20030;-73
2021/01/30 06:02:28;;;;;;;6.18;3.53;;;1.00;99.90;;;;;;5005306;28;20428;-73
2021/01/30 06:04:54;;;;;;;9.85;5.43;;;1.30;99.90;;;;;;5006754;28;20022;-73
2021/01/30 06:07:26;;;;;;;7.53;4.38;;;1.30;99.90;;;;;;5006451;28;20038;-73
2021/01/30 06:09:52;;;;;;;8.77;4.60;;;1.30;99.90;;;;;;5006226;28;20018;-73
2021/01/30 06:12:30;;;;;;;8.45;4.68;;;1.20;99.90;;;;;;5007365;28;20096;-73
2021/01/30 06:15:07;;;;;;;10.55;5.72;;;1.20;99.90;;;;;;5006294;28;20101;-73
2021/01/30 06:17:34;;;;;;;7.50;4.75;;;1.10;99.90;;;;;;5005712;28;20030;-73
2021/01/30 06:20:32;;;;;;;9.85;5.80;;;1.00;99.90;;;;;;5006870;28;20073;-73
2021/01/30 06:23:12;;;;;;;9.93;5.80;;;0.90;99.90;;;;;;4973258;28;20034;-73
2021/01/30 06:25:40;;;;;;;10.75;5.90;;;1.10;99.90;;;;;;5001781;28;20061;-73
2021/01/30 06:28:11;;;;;;;10.77;6.05;;;1.20;99.90;;;;;;4987280;28;20381;-73
2021/01/30 06:30:43;;;;;;;9.57;4.55;;;1.50;99.90;;;;;;4998951;28;20033;-73
2021/01/30 06:33:23;;;;;;;7.15;4.07;;;1.50;99.90;;;;;;5006212;28;20100;-73
2021/01/30 06:35:51;;;;;;;6.95;4.20;;;1.60;99.90;;;;;;5005557;28;20098;-73
2021/01/30 06:38:21;;;;;;;7.68;4.32;;;1.60;99.90;;;;;;5006199;28;20556;-73
2021/01/30 06:40:56;;;;;;;7.00;3.67;;;1.50;99.90;;;;;;5006815;28;20121;-73
2021/01/30 06:43:24;;;;;;;;;;;1.40;99.90;;;;;;5006520;28;20022;-73
2021/01/30 06:45:53;;;;;;;9.20;4.32;;;1.30;99.90;;;;;;5006746;28;19985;-73
2021/01/30 06:48:38;;;;;;;9.88;4.60;;;1.30;99.90;;;;;;5004604;28;20026;-73
2021/01/30 06:51:19;;;;;;;;;;;1.30;99.90;;;;;;5006900;28;20068;-73
2021/01/30 06:53:45;;;;;;;10.80;5.00;;;1.50;99.90;;;;;;4998509;28;19913;-73
2021/01/30 06:56:25;;;;;;;10.65;5.13;;;1.50;99.90;;;;;;4998057;28;20500;-73
2021/01/30 06:59:00;;;;;;;14.45;7.07;;;1.30;99.90;;;;;;5010297;28;20396;-73
2021/01/30 07:01:43;;;;;;;14.80;7.70;;;1.20;99.90;;;;;;5004929;28;20041;-73
2021/01/30 07:04:27;;;;;;;10.52;5.95;;;1.30;99.90;;;;;;5003378;28;20025;-73
2021/01/30 07:07:12;;;;;;;11.73;5.50;;;1.30;99.90;;;;;;5002552;28;21000;-73
2021/01/30 07:10:02;;;;;;;12.43;6.57;;;1.20;99.90;;;;;;5003935;28;20030;-73
2021/01/30 07:12:39;;;;;;;13.00;7.00;;;1.20;99.90;;;;;;5002862;28;20169;-73
2021/01/30 07:15:38;;;;;;;16.90;9.38;;;1.20;99.90;;;;;;5004189;28;20026;-73
2021/01/30 07:18:23;;;;;;;6.93;3.92;;;1.20;99.90;;;;;;5001437;28;20036;-73
2021/01/30 07:21:13;;;;;;;5.20;2.90;;;1.10;99.90;;;;;;4997637;28;20021;-73
2021/01/30 07:23:52;;;;;;;8.60;5.32;;;1.10;99.90;;;;;;4997142;28;20030;-73
2021/01/30 07:26:28;;;;;;;4.40;2.33;;;1.30;99.90;;;;;;5003817;28;20068;-74
2021/01/30 07:29:04;;;;;;;5.78;3.05;;;1.30;99.90;;;;;;4995750;28;20097;-73
2021/01/30 07:31:47;;;;;;;6.45;3.92;;;1.40;99.90;;;;;;4998892;28;20064;-73
2021/01/30 07:34:18;;;;;;;4.93;2.78;;;1.40;99.90;;;;;;4998842;28;20040;-73
2021/01/30 07:37:02;;;;;;;4.10;2.00;;;1.50;99.90;;;;;;4998898;28;20088;-73
2021/01/30 07:39:43;;;;;;;5.07;2.25;;;1.40;99.90;;;;;;5000984;28;20034;-73
2021/01/30 07:42:16;;;;;;;4.85;1.80;;;1.30;99.90;;;;;;5003167;28;20029;-73
2021/01/30 07:44:54;;;;;;;4.13;1.92;;;1.40;99.90;;;;;;5003061;28;20041;-73
2021/01/30 07:47:47;;;;;;;14.93;6.05;;;1.40;99.90;;;;;;5000908;28;20026;-73
2021/01/30 07:50:27;;;;;;;12.45;6.05;;;1.40;99.90;;;;;;5002591;28;20022;-74
2021/01/30 07:53:21;;;;;;;8.35;3.42;;;1.30;99.90;;;;;;5001402;28;20037;-73
2021/01/30 07:55:57;;;;;;;4.93;2.20;;;1.30;99.90;;;;;;5002229;28;20038;-73
2021/01/30 07:58:30;;;;;;;13.27;4.95;;;1.40;99.90;;;;;;5002721;28;20026;-73
2021/01/30 08:01:15;;;;;;;5.82;3.30;;;1.20;99.90;;;;;;5002611;28;20034;-74
2021/01/30 08:04:04;;;;;;;4.60;2.60;;;1.10;99.90;;;;;;4998345;28;20073;-73
2021/01/30 08:07:35;;;;;;;5.43;2.47;;;1.00;99.90;;;;;;4999584;28;20032;-73
2021/01/30 08:10:18;;;;;;;4.82;2.53;;;1.10;99.90;;;;;;5002572;28;20042;-73
2021/01/30 08:13:10;;;;;;;5.28;2.60;;;1.00;99.90;;;;;;5001973;28;20378;-73
2021/01/30 08:15:45;;;;;;;14.63;7.30;;;1.20;99.90;;;;;;5004466;28;20026;-73
2021/01/30 08:18:17;;;;;;;6.30;3.35;;;1.10;99.90;;;;;;5003552;28;20033;-73
2021/01/30 08:21:26;;;;;;;10.30;4.97;;;1.00;99.90;;;;;;4998474;28;20401;-73
2021/01/30 08:24:12;;;;;;;6.22;3.40;;;1.10;99.90;;;;;;4957308;28;20042;-73
2021/01/30 08:26:52;;;;;;;4.90;2.40;;;1.10;99.90;;;;;;4991104;28;20046;-73
2021/01/30 08:29:28;;;;;;;5.15;2.47;;;1.40;99.90;;;;;;4999642;28;20128;-73
2021/01/30 08:32:19;;;;;;;5.22;3.17;;;1.70;99.90;;;;;;5001681;28;20089;-73
2021/01/30 08:34:46;;;;;;;5.47;2.40;;;1.60;99.90;;;;;;5003855;28;20037;-73
2021/01/30 08:37:13;;;;;;;4.57;2.38;;;2.00;99.90;;;;;;5004764;28;20040;-74
2021/01/30 08:40:14;;;;;;;6.63;3.22;;;2.10;99.90;;;;;;5003253;28;20026;-73
2021/01/30 08:42:56;;;;;;;7.28;3.95;;;1.70;99.90;;;;;;4976248;28;20551;-73
2021/01/30 08:45:35;;;;;;;12.88;5.50;;;1.50;99.90;;;;;;5000078;28;20076;-73
2021/01/30 08:48:02;;;;;;;113.55;39.38;;;1.40;99.90;;;;;;5002782;28;20508;-73
2021/01/30 08:50:40;;;;;;;22.65;10.70;;;1.40;99.90;;;;;;5001232;28;20120;-73
2021/01/30 08:53:19;;;;;;;12.10;5.68;;;1.50;99.90;;;;;;5004009;28;20038;-73
2021/01/30 08:55:46;;;;;;;8.77;3.88;;;1.50;99.90;;;;;;5002620;28;20535;-73
2021/01/30 08:58:37;;;;;;;10.98;5.43;;;1.50;99.90;;;;;;5003056;28;20030;-73
2021/01/30 09:01:27;;;;;;;10.18;5.25;;;1.60;99.90;;;;;;4996577;28;20422;-72
2021/01/30 09:04:02;;;;;;;15.75;7.25;;;1.60;99.90;;;;;;5000416;28;20112;-73
2021/01/30 09:06:42;;;;;;;10.73;7.10;;;1.40;99.90;;;;;;5002048;28;20026;-73
2021/01/30 09:09:15;;;;;;;14.40;7.53;;;1.40;99.90;;;;;;5001801;28;20042;-73
2021/01/30 09:11:48;;;;;;;14.30;7.05;;;1.50;99.90;;;;;;4989535;28;20383;-72
2021/01/30 09:14:18;;;;;;;13.77;7.28;;;1.60;99.90;;;;;;5003451;28;20017;-74
2021/01/30 09:17:10;;;;;;;11.30;6.47;;;1.70;99.90;;;;;;4998800;28;20112;-73
2021/01/30 09:20:11;;;;;;;11.45;6.18;;;1.90;99.90;;;;;;5002189;28;20037;-73
2021/01/30 09:23:00;;;;;;;9.15;5.60;;;2.10;99.90;;;;;;4979692;28;20042;-73
2021/01/30 09:25:42;;;;;;;8.57;5.63;;;2.30;99.90;;;;;;4996610;28;20030;-73
2021/01/30 09:28:22;;;;;;;9.77;5.72;;;2.40;99.90;;;;;;5003971;28;20034;-73
2021/01/30 09:31:05;;;;;;;11.18;6.32;;;2.60;99.90;;;;;;4992456;28;20408;-73
2021/01/30 09:33:40;;;;;;;11.93;6.72;;;2.70;99.90;;;;;;5002576;28;20034;-73
2021/01/30 09:36:26;;;;;;;13.18;5.95;;;2.70;99.90;;;;;;5005721;28;20026;-73
2021/01/30 09:38:59;;;;;;;16.02;4.60;;;2.70;99.90;;;;;;5004836;28;20399;-73
2021/01/30 09:41:26;;;;;;;8.52;3.97;;;2.80;99.90;;;;;;5006295;28;20072;-73
2021/01/30 09:44:08;;;;;;;8.90;5.03;;;2.90;99.90;;;;;;5006651;28;20064;-73
2021/01/30 09:46:42;;;;;;;12.02;6.10;;;2.80;99.90;;;;;;5006757;28;20030;-73
2021/01/30 09:49:17;;;;;;;13.85;7.28;;;2.90;99.90;;;;;;4990165;28;20029;-73
2021/01/30 09:51:45;;;;;;;12.70;8.20;;;2.70;99.90;;;;;;4993719;28;20036;-73
2021/01/30 09:54:17;;;;;;;12.77;8.63;;;2.40;99.90;;;;;;5006796;28;20030;-73
2021/01/30 09:56:46;;;;;;;21.42;11.65;;;2.40;99.90;;;;;;5006317;28;20057;-73
2021/01/30 09:59:19;;;;;;;22.98;12.15;;;2.50;99.90;;;;;;5006739;28;20048;-73
2021/01/30 10:01:47;;;;;;;19.77;9.95;;;2.50;99.90;;;;;;5004887;28;20779;-73
2021/01/30 10:04:27;;;;;;;14.68;8.85;;;2.40;99.90;;;;;;5007322;28;20527;-73
2021/01/30 10:07:05;;;;;;;15.52;9.50;;;2.40;99.90;;;;;;5006163;28;20029;-73
2021/01/30 10:09:38;;;;;;;18.67;11.13;;;2.40;99.90;;;;;;5005228;28;20037;-73
2021/01/30 10:12:05;;;;;;;15.30;9.32;;;2.40;99.90;;;;;;5004556;28;20681;-73
2021/01/30 10:14:37;;;;;;;16.73;9.43;;;2.50;99.90;;;;;;5005116;28;20037;-73
2021/01/30 10:17:06;;;;;;;16.15;10.05;;;2.50;99.90;;;;;;5006063;28;20025;-74
2021/01/30 10:19:34;;;;;;;14.63;9.68;;;2.60;99.90;;;;;;5006246;28;20096;-73
2021/01/30 10:22:19;;;;;;;11.02;7.20;;;2.70;99.90;;;;;;5006621;28;20034;-73
2021/01/30 10:24:46;;;;;;;7.57;4.88;;;3.10;99.90;;;;;;5005710;28;20495;-73
2021/01/30 10:27:26;;;;;;;9.75;6.40;;;3.30;99.90;;;;;;5006192;28;20127;-72
2021/01/30 10:29:52;;;;;;;11.52;7.45;;;3.30;99.90;;;;;;5006413;28;20092;-73
2021/01/30 10:32:22;;;;;;;12.25;6.50;;;3.20;99.90;;;;;;5004765;28;20079;-73
2021/01/30 10:34:59;;;;;;;11.10;5.32;;;4.40;99.90;;;;;;5002169;28;20029;-73
2021/01/30 10:37:44;;;;;;;7.15;3.67;;;3.90;99.90;;;;;;4995527;28;20417;-71
2021/01/30 10:40:27;;;;;;;6.43;3.17;;;4.30;99.90;;;;;;5005316;28;20030;-74
2021/01/30 10:42:58;;;;;;;14.65;7.32;;;4.30;99.90;;;;;;4987018;28;20030;-73
2021/01/30 10:45:29;;;;;;;12.63;7.28;;;4.20;99.90;;;;;;5004745;28;20465;-73
2021/01/30 10:48:03;;;;;;;7.65;4.38;;;4.00;99.90;;;;;;5005405;28;20610;-73
2021/01/30 10:50:41;;;;;;;10.70;6.90;;;4.00;99.90;;;;;;5006151;28;20033;-73
2021/01/30 10:53:29;;;;;;;14.75;7.90;;;4.10;99.90;;;;;;5002554;28;20345;-73
2021/01/30 10:55:55;;;;;;;8.23;5.03;;;3.80;99.90;;;;;;5005425;28;20029;-73
2021/01/30 10:58:26;;;;;;;15.15;8.73;;;4.00;99.90;;;;;;4988834;28;20031;-73
2021/01/30 11:01:02;;;;;;;13.20;8.50;;;4.00;99.90;;;;;;5003935;28;20034;-73
2021/01/30 11:03:41;;;;;;;13.95;8.98;;;3.90;99.90;;;;;;5005001;28;20416;-73
2021/01/30 11:06:29;;;;;;;14.20;7.68;;;3.80;99.90;;;;;;5001610;28;20045;-73
2021/01/30 11:08:56;;;;;;;12.85;9.75;;;3.90;99.90;;;;;;4985929;28;20042;-73
2021/01/30 11:11:26;;;;;;;13.70;8.32;;;4.00;99.90;;;;;;4998463;28;20520;-74
2021/01/30 11:13:53;;;;;;;10.30;5.45;;;4.30;99.90;;;;;;5005458;28;20523;-73
2021/01/30 11:16:34;;;;;;;13.88;9.57;;;4.30;99.90;;;;;;5004802;28;20132;-73
2021/01/30 11:19:31;;;;;;;8.32;5.50;;;4.30;99.90;;;;;;5005302;28;20057;-73
2021/01/30 11:22:02;;;;;;;12.13;8.75;;;4.40;99.90;;;;;;5005330;28;20056;-73
2021/01/30 11:24:46;;;;;;;13.73;10.07;;;4.50;99.90;;;;;;5005134;28;20033;-73
2021/01/30 11:27:28;;;;;;;13.05;6.82;;;4.60;99.90;;;;;;5004121;28;20018;-73
2021/01/30 11:29:54;;;;;;;12.00;6.70;;;4.50;99.90;;;;;;5004603;28;20034;-73
2021/01/30 11:32:22;;;;;;;14.40;8.20;;;4.60;99.90;;;;;;5004749;28;20082;-73
2021/01/30 11:34:53;;;;;;;11.93;7.40;;;4.70;99.90;;;;;;5004371;28;20041;-73
2021/01/30 11:37:19;;;;;;;8.15;5.53;;;4.70;99.90;;;;;;5005101;28;20030;-73
2021/01/30 11:39:45;;;;;;;8.18;5.22;;;4.70;99.90;;;;;;5004603;28;20028;-73
2021/01/30 11:42:11;;;;;;;11.80;5.72;;;4.80;99.90;;;;;;5005434;28;20061;-73
2021/01/30 11:44:36;;;;;;;9.50;4.85;;;4.90;99.90;;;;;;5004681;28;20022;-73
2021/01/30 11:47:02;;;;;;;8.60;5.55;;;5.00;99.90;;;;;;5003927;28;20022;-73
2021/01/30 11:49:28;;;;;;;12.60;7.22;;;5.10;99.90;;;;;;5004071;28;20041;-73
2021/01/30 11:51:54;;;;;;;10.98;7.15;;;5.10;99.90;;;;;;5000461;28;20030;-73
2021/01/30 11:54:20;;;;;;;24.67;13.27;;;5.10;99.90;;;;;;4997456;28;20837;-73
2021/01/30 11:56:46;;;;;;;15.82;9.48;;;5.20;99.90;;;;;;5004282;28;20457;-73
2021/01/30 11:59:12;;;;;;;14.02;7.07;;;5.30;99.90;;;;;;5004245;28;20040;-73
2021/01/30 12:01:39;;;;;;;11.20;6.43;;;5.30;99.90;;;;;;5004997;28;20030;-73
2021/01/30 12:04:05;;;;;;;10.50;6.50;;;5.20;99.90;;;;;;5004799;28;20065;-73
2021/01/30 12:06:31;;;;;;;10.25;7.07;;;5.30;99.90;;;;;;5004590;28;20028;-74
2021/01/30 12:08:57;;;;;;;8.80;6.38;;;5.40;99.90;;;;;;5003752;28;20038;-73
2021/01/30 12:11:23;;;;;;;10.40;6.25;;;5.30;99.90;;;;;;5004391;28;20045;-73
2021/01/30 12:13:50;;;;;;;9.82;6.32;;;5.40;99.90;;;;;;5004380;28;20030;-73
2021/01/30 12:16:20;;;;;;;17.20;15.00;;;5.60;99.90;;;;;;5004130;28;20575;-74
2021/01/30 12:18:45;;;;;;;7.35;5.03;;;5.90;99.90;;;;;;5004188;28;20026;-74
2021/01/30 12:21:11;;;;;;;11.68;5.35;;;6.00;99.90;;;;;;5003181;28;20088;-74
2021/01/30 12:23:36;;;;;;;6.57;4.07;;;6.10;99.90;;;;;;5004313;28;20032;-74
2021/01/30 12:26:03;;;;;;;9.75;5.85;;;6.30;99.60;;;;;;5004190;28;20041;-73
2021/01/30 12:28:32;;;;;;;15.30;5.35;;;6.30;99.70;;;;;;4987648;28;20034;-73
2021/01/30 12:30:58;;;;;;;10.68;5.80;;;6.40;99.60;;;;;;5003581;28;20088;-73
2021/01/30 12:33:24;;;;;;;9.23;5.47;;;6.40;99.20;;;;;;5004018;28;20025;-74
2021/01/30 12:35:50;;;;;;;9.15;5.20;;;6.40;99.40;;;;;;5003904;28;20523;-73
2021/01/30 12:38:16;;;;;;;13.43;8.90;;;6.30;99.30;;;;;;5004409;28;20065;-73
2021/01/30 12:40:45;;;;;;;13.52;10.52;;;6.40;99.90;;;;;;5003951;28;20117;-73
2021/01/30 12:43:12;;;;;;;11.50;5.75;;;6.50;99.80;;;;;;5004641;28;20056;-73
2021/01/30 12:45:38;;;;;;;11.73;6.82;;;6.20;99.50;;;;;;5003596;28;20044;-73
2021/01/30 12:48:05;;;;;;;12.57;5.57;;;6.30;99.90;;;;;;5004263;28;20041;-74
2021/01/30 12:50:32;;;;;;;8.70;4.68;;;6.40;99.50;;;;;;5004004;28;20481;-73
2021/01/30 12:52:58;;;;;;;6.63;3.70;;;6.50;99.20;;;;;;5001183;28;20041;-74
2021/01/30 12:55:24;;;;;;;8.07;4.72;;;6.70;98.40;;;;;;5001579;28;20034;-73
2021/01/30 12:57:50;;;;;;;7.30;4.57;;;6.90;98.50;;;;;;5003523;28;20404;-73
2021/01/30 13:00:20;;;;;;;5.90;3.72;;;6.90;98.60;;;;;;5008140;28;20030;-73
2021/01/30 13:02:46;;;;;;;24.45;15.23;;;6.90;97.80;;;;;;5008403;28;20030;-73
2021/01/30 13:05:16;;;;;;;9.15;4.10;;;6.90;97.90;;;;;;5006156;28;20553;-74
2021/01/30 13:07:42;;;;;;;8.45;4.93;;;6.90;97.40;;;;;;5008194;28;20034;-74
2021/01/30 13:10:11;;;;;;;10.65;5.50;;;6.90;98.20;;;;;;5007650;28;20076;-73
2021/01/30 13:12:38;;;;;;;6.88;4.32;;;6.70;98.60;;;;;;5008440;28;20109;-73
2021/01/30 13:15:05;;;;;;;7.93;4.28;;;6.70;98.00;;;;;;5007666;28;20069;-73
2021/01/30 13:17:31;;;;;;;5.90;3.22;;;6.80;97.90;;;;;;5008028;28;20060;-73
2021/01/30 13:19:57;;;;;;;5.50;3.08;;;6.90;97.60;;;;;;5007055;28;20065;-74
2021/01/30 13:22:24;;;;;;;5.47;2.80;;;6.80;97.30;;;;;;5007731;28;20026;-73
2021/01/30 13:24:50;;;;;;;5.07;2.95;;;6.80;97.60;;;;;;5007697;28;20045;-73